Time;durP1;ratioP1;P1;durP2;ratioP2;P2;SDS_P1;SDS_P2;PMS_P1;PMS_P2;Temp;Humidity;BMP_temperature;BMP_pressure;BME280_temperature;BME280_humidity;BME280_pressure;Samples;Min_cycle;Max_cycle;Signal;HPM_P1;HPM_P2
2021/05/06 00:09:10;;;;;;;0.60;0.30;;;;;;;;;;5081043;28;20486;-54
2021/05/06 00:33:03;;;;;;;1.07;0.40;;;;;;;;;;5011015;28;20013;-55
2021/05/06 00:35:30;;;;;;;0.50;0.33;;;;;;;;;;5010415;28;20105;-56
2021/05/06 00:38:04;;;;;;;1.27;0.50;;;;;;;;;;5010727;28;20041;-53
2021/05/06 00:54:29;;;;;;;1.20;0.70;;;;;;;;;;5028909;28;20025;-53
2021/05/06 01:09:40;;;;;;;1.10;1.00;;;;;;;;;;5086532;28;20020;-48
2021/05/06 01:12:05;;;;;;;1.40;1.30;;;;;;;;;;5091100;28;20159;-53
2021/05/06 01:14:31;;;;;;;0.80;0.67;;;;;;;;;;5079047;28;20127;-53
2021/05/06 01:16:56;;;;;;;1.77;0.80;;;;;;;;;;5072458;28;20331;-55
2021/05/06 01:19:22;;;;;;;1.03;0.60;;;;;;;;;;5075125;28;20028;-51
2021/05/06 01:21:47;;;;;;;1.60;1.07;;;;;;;;;;5081886;28;20031;-49
2021/05/06 01:24:12;;;;;;;1.80;1.27;;;;;;;;;;5084946;28;20028;-54
2021/05/06 01:29:07;;;;;;;1.70;1.53;;;;;;;;;;5071461;28;20016;-52
2021/05/06 01:31:36;;;;;;;3.13;1.40;;;;;;;;;;5091441;28;20016;-50
2021/05/06 01:36:56;;;;;;;1.40;0.90;;;;;;;;;;5075384;28;20103;-53
2021/05/06 02:00:07;;;;;;;1.47;1.20;;;;;;;;;;5082711;28;20046;-53
2021/05/06 02:02:32;;;;;;;1.27;1.10;;;;;;;;;;5080024;28;20023;-53
2021/05/06 02:04:57;;;;;;;1.50;1.17;;;;;;;;;;5079488;28;20092;-55
2021/05/06 02:07:22;;;;;;;1.93;1.60;;;;;;;;;;5071371;28;20021;-50
2021/05/06 02:09:49;;;;;;;1.73;1.33;;;;;;;;;;5075967;28;20021;-53
2021/05/06 02:12:16;;;;;;;1.63;1.53;;;;;;;;;;5068523;28;20033;-55
2021/05/06 02:14:47;;;;;;;1.80;1.70;;;;;;;;;;5070905;28;20045;-55
2021/05/06 02:17:12;;;;;;;1.60;1.40;;;;;;;;;;5075832;28;20028;-55
2021/05/06 02:19:43;;;;;;;1.53;1.40;;;;;;;;;;5072220;28;20029;-50
2021/05/06 02:22:09;;;;;;;2.37;1.60;;;;;;;;;;5081726;28;20028;-54
2021/05/06 02:24:34;;;;;;;2.07;1.67;;;;;;;;;;5071557;28;20081;-53
2021/05/06 02:27:00;;;;;;;2.97;2.27;;;;;;;;;;5071824;28;20033;-53
2021/05/06 02:29:25;;;;;;;1.73;1.63;;;;;;;;;;5074228;28;20463;-50
2021/05/06 02:31:50;;;;;;;3.30;1.90;;;;;;;;;;5089256;28;20099;-53
2021/05/06 02:34:16;;;;;;;1.93;1.60;;;;;;;;;;5071112;28;20024;-52
2021/05/06 02:36:41;;;;;;;1.20;1.10;;;;;;;;;;5070873;28;20107;-54
2021/05/06 02:39:06;;;;;;;2.33;1.87;;;;;;;;;;5074346;28;20039;-52
2021/05/06 02:41:31;;;;;;;2.47;2.07;;;;;;;;;;5072711;28;20032;-50
2021/05/06 02:43:57;;;;;;;2.20;1.30;;;;;;;;;;5087169;28;20081;-51
2021/05/06 02:46:24;;;;;;;3.60;1.73;;;;;;;;;;5072230;28;20135;-52
2021/05/06 02:48:49;;;;;;;1.30;1.13;;;;;;;;;;5071742;28;20016;-51
2021/05/06 02:51:14;;;;;;;2.50;1.40;;;;;;;;;;5091107;28;20016;-54
2021/05/06 02:53:48;;;;;;;2.70;1.53;;;;;;;;;;5071775;28;20046;-53
2021/05/06 02:56:21;;;;;;;2.30;2.10;;;;;;;;;;5071596;28;20123;-50
2021/05/06 03:04:00;;;;;;;2.40;2.20;;;;;;;;;;5081846;28;20036;-55
2021/05/06 03:06:28;;;;;;;2.43;2.20;;;;;;;;;;5085546;28;20488;-55
2021/05/06 03:09:00;;;;;;;2.77;2.10;;;;;;;;;;5079340;28;20474;-53
2021/05/06 03:11:39;;;;;;;3.60;2.63;;;;;;;;;;5080609;28;20036;-54
2021/05/06 03:24:29;;;;;;;3.10;2.60;;;;;;;;;;5094472;28;20020;-55
2021/05/06 03:26:55;;;;;;;2.63;2.00;;;;;;;;;;5088986;28;20096;-52
2021/05/06 03:34:45;;;;;;;3.27;2.97;;;;;;;;;;5094366;28;20107;-49
2021/05/06 03:42:58;;;;;;;5.20;3.50;;;;;;;;;;5082625;28;20043;-51
2021/05/06 03:48:48;;;;;;;5.07;3.03;;;;;;;;;;5072234;28;20031;-55
2021/05/06 04:25:56;;;;;;;1.83;1.67;;;;;;;;;;5073273;28;20318;-53
2021/05/06 04:29:07;;;;;;;2.33;1.97;;;;;;;;;;5074041;28;20019;-52
2021/05/06 04:39:12;;;;;;;2.30;1.77;;;;;;;;;;5085823;28;20048;-52
2021/05/06 04:41:50;;;;;;;2.00;1.50;;;;;;;;;;5084544;28;20317;-52
2021/05/06 04:45:02;;;;;;;2.10;1.90;;;;;;;;;;5081661;28;20048;-51
2021/05/06 04:55:24;;;;;;;2.70;1.70;;;;;;;;;;5076508;28;20089;-53
2021/05/06 05:05:48;;;;;;;3.43;1.83;;;;;;;;;;5072043;28;20024;-55
2021/05/06 05:08:16;;;;;;;2.57;1.90;;;;;;;;;;5074728;28;20016;-56
2021/05/06 05:11:16;;;;;;;3.63;1.77;;;;;;;;;;5089005;28;20190;-52
2021/05/06 05:24:26;;;;;;;2.40;1.80;;;;;;;;;;5071281;28;20035;-56
2021/05/06 05:26:51;;;;;;;2.50;1.27;;;;;;;;;;5071366;28;20017;-53
2021/05/06 05:29:16;;;;;;;2.37;1.73;;;;;;;;;;5079040;28;20035;-54
2021/05/06 05:31:42;;;;;;;1.95;1.70;;;;;;;;;;5074006;28;20023;-51
2021/05/06 05:34:27;;;;;;;1.90;1.17;;;;;;;;;;5078169;28;20430;-55
2021/05/06 05:36:55;;;;;;;;;;;;;;;;;;5072588;28;20032;-54
2021/05/06 05:39:55;;;;;;;2.55;1.83;;;;;;;;;;5068036;28;19912;-54
2021/05/06 05:48:07;;;;;;;3.23;1.80;;;;;;;;;;4994683;28;20062;-53
2021/05/06 05:55:45;;;;;;;0.75;0.50;;;;;;;;;;5001303;28;20096;-56
2021/05/06 05:58:10;;;;;;;2.15;1.52;;;;;;;;;;5005421;28;20497;-57
2021/05/06 06:00:36;;;;;;;5.20;2.00;;;;;;;;;;5005889;28;20046;-55
2021/05/06 06:03:01;;;;;;;1.92;1.58;;;;;;;;;;5009145;28;20512;-55
2021/05/06 06:05:26;;;;;;;2.67;1.38;;;;;;;;;;5008142;28;20073;-55
2021/05/06 06:07:51;;;;;;;2.58;1.48;;;;;;;;;;5005744;28;20026;-54
2021/05/06 06:10:17;;;;;;;1.83;1.30;;;;;;;;;;5008385;28;20030;-55
2021/05/06 06:12:42;;;;;;;1.00;0.68;;;;;;;;;;5009309;28;20548;-54
2021/05/06 06:15:13;;;;;;;2.42;1.20;;;;;;;;;;5005801;28;20105;-54
2021/05/06 06:17:44;;;;;;;1.73;1.02;;;;;;;;;;5004344;28;20056;-52
2021/05/06 06:20:09;;;;;;;2.30;1.00;;;;;;;;;;5008182;28;20117;-52
2021/05/06 06:22:34;;;;;;;1.08;0.88;;;;;;;;;;5001922;28;20117;-56
2021/05/06 06:25:03;;;;;;;1.70;0.90;;;;;;;;;;5063233;28;20107;-51
2021/05/06 06:27:29;;;;;;;1.50;0.90;;;;;;;;;;5077753;28;20023;-54
2021/05/06 06:29:54;;;;;;;2.22;1.20;;;;;;;;;;5083194;28;20036;-53
2021/05/06 06:32:19;;;;;;;3.45;1.70;;;;;;;;;;5079738;28;20020;-55
2021/05/06 06:34:45;;;;;;;1.15;1.02;;;;;;;;;;5055011;28;20037;-52
2021/05/06 06:37:10;;;;;;;1.27;1.02;;;;;;;;;;5071541;28;20107;-53
2021/05/06 06:39:39;;;;;;;1.38;1.27;;;;;;;;;;5067001;28;20478;-54
2021/05/06 06:42:07;;;;;;;1.92;0.90;;;;;;;;;;5089023;28;20035;-55
2021/05/06 06:44:33;;;;;;;1.75;1.00;;;;;;;;;;5084197;28;20047;-55
2021/05/06 06:47:02;;;;;;;2.35;0.95;;;;;;;;;;5074728;28;20427;-56
2021/05/06 06:49:32;;;;;;;0.70;0.45;;;;;;;;;;5072245;28;20016;-54
2021/05/06 06:51:57;;;;;;;1.83;0.77;;;;;;;;;;5090344;28;20453;-53
2021/05/06 06:54:24;;;;;;;1.13;0.73;;;;;;;;;;5095035;28;20047;-56
2021/05/06 06:56:49;;;;;;;2.38;1.25;;;;;;;;;;5086775;28;20081;-53
2021/05/06 06:59:15;;;;;;;1.90;0.63;;;;;;;;;;5089862;28;20458;-54
2021/05/06 07:01:40;;;;;;;1.70;0.70;;;;;;;;;;5082650;28;20012;-54
2021/05/06 07:04:05;;;;;;;1.45;0.85;;;;;;;;;;5090228;28;20024;-55
2021/05/06 07:06:31;;;;;;;1.83;0.68;;;;;;;;;;5078402;28;20013;-53
2021/05/06 07:08:56;;;;;;;2.28;1.08;;;;;;;;;;5070816;28;20376;-55
2021/05/06 07:11:21;;;;;;;2.78;0.57;;;;;;;;;;5079128;28;20016;-55
2021/05/06 07:13:47;;;;;;;1.67;0.68;;;;;;;;;;5083044;28;20104;-54
2021/05/06 07:16:13;;;;;;;0.40;0.35;;;;;;;;;;5085590;28;20376;-52
2021/05/06 07:18:38;;;;;;;1.30;0.70;;;;;;;;;;5076976;28;20028;-50
2021/05/06 07:21:04;;;;;;;1.17;0.55;;;;;;;;;;5088058;28;20024;-53
2021/05/06 07:23:30;;;;;;;0.98;0.68;;;;;;;;;;5086344;28;20031;-47
2021/05/06 07:25:56;;;;;;;0.80;0.40;;;;;;;;;;5079619;28;20028;-50
2021/05/06 07:28:23;;;;;;;2.05;0.52;;;;;;;;;;5072635;28;20470;-54
2021/05/06 07:30:50;;;;;;;1.67;0.60;;;;;;;;;;5090114;28;20024;-53
2021/05/06 07:33:15;;;;;;;1.30;0.50;;;;;;;;;;5075354;28;20016;-55
2021/05/06 07:35:41;;;;;;;0.63;0.40;;;;;;;;;;5077848;28;20495;-54
2021/05/06 07:38:07;;;;;;;1.52;0.50;;;;;;;;;;5070373;28;20028;-52
2021/05/06 07:40:33;;;;;;;1.08;0.57;;;;;;;;;;5090422;28;20035;-50
2021/05/06 07:42:58;;;;;;;0.75;0.63;;;;;;;;;;5093014;28;20119;-51
2021/05/06 07:45:24;;;;;;;1.52;0.43;;;;;;;;;;5081189;28;20073;-54
2021/05/06 07:47:49;;;;;;;1.42;0.60;;;;;;;;;;5070382;28;20021;-54
2021/05/06 07:50:15;;;;;;;1.30;0.70;;;;;;;;;;5086365;28;20129;-52
2021/05/06 07:52:42;;;;;;;0.70;0.50;;;;;;;;;;5086440;28;20047;-51
2021/05/06 07:55:08;;;;;;;3.08;1.05;;;;;;;;;;5084668;28;20100;-47
2021/05/06 07:57:33;;;;;;;2.28;0.63;;;;;;;;;;5072865;28;20161;-50
2021/05/06 07:59:58;;;;;;;2.75;0.65;;;;;;;;;;5065307;28;20352;-55
2021/05/06 08:02:24;;;;;;;3.10;0.50;;;;;;;;;;5077768;28;20024;-54
2021/05/06 08:04:49;;;;;;;2.17;0.70;;;;;;;;;;5086895;28;20024;-53
2021/05/06 08:07:14;;;;;;;2.50;1.05;;;;;;;;;;5082212;28;20012;-54
2021/05/06 08:09:40;;;;;;;2.35;0.50;;;;;;;;;;5069899;28;20341;-53
2021/05/06 08:12:06;;;;;;;2.45;0.50;;;;;;;;;;5072162;28;20146;-54
2021/05/06 08:14:32;;;;;;;1.45;0.60;;;;;;;;;;5072986;28;20055;-54
2021/05/06 08:16:57;;;;;;;1.02;0.40;;;;;;;;;;5076449;28;20021;-53
2021/05/06 08:19:22;;;;;;;2.72;0.73;;;;;;;;;;5072621;28;20305;-52
2021/05/06 08:21:48;;;;;;;1.30;0.43;;;;;;;;;;5072586;28;20039;-53
2021/05/06 08:24:13;;;;;;;2.38;0.82;;;;;;;;;;5072882;28;20021;-49
2021/05/06 08:26:39;;;;;;;1.10;0.35;;;;;;;;;;5072166;28;20099;-52
2021/05/06 08:29:04;;;;;;;1.27;0.57;;;;;;;;;;5070384;28;20029;-52
2021/05/06 08:31:29;;;;;;;2.10;0.80;;;;;;;;;;5076844;28;20059;-52
2021/05/06 08:33:55;;;;;;;1.63;0.75;;;;;;;;;;5073691;28;20456;-52
2021/05/06 08:36:20;;;;;;;2.30;0.68;;;;;;;;;;5080556;28;20028;-55
2021/05/06 08:38:45;;;;;;;1.95;0.77;;;;;;;;;;5074571;28;20027;-56
2021/05/06 08:41:12;;;;;;;1.92;0.40;;;;;;;;;;5079609;28;20133;-56
2021/05/06 08:43:39;;;;;;;1.88;0.70;;;;;;;;;;5080388;28;20031;-56
2021/05/06 08:46:05;;;;;;;1.45;0.65;;;;;;;;;;5082897;28;20028;-54
2021/05/06 08:48:31;;;;;;;2.13;0.50;;;;;;;;;;5078328;28;20112;-54
2021/05/06 08:50:57;;;;;;;1.20;0.52;;;;;;;;;;5076730;28;20039;-56
2021/05/06 08:53:22;;;;;;;2.25;0.95;;;;;;;;;;5091936;28;20466;-55
2021/05/06 08:55:48;;;;;;;2.13;0.70;;;;;;;;;;5085226;28;20115;-51
2021/05/06 08:58:14;;;;;;;0.82;0.32;;;;;;;;;;5075279;28;20028;-55
2021/05/06 09:00:39;;;;;;;1.63;0.57;;;;;;;;;;5080235;28;20032;-54
2021/05/06 09:03:05;;;;;;;1.45;0.50;;;;;;;;;;5083481;28;20024;-53
2021/05/06 09:05:30;;;;;;;2.97;0.57;;;;;;;;;;5075000;28;20036;-51
2021/05/06 09:07:56;;;;;;;2.95;0.82;;;;;;;;;;5064867;28;20073;-53
2021/05/06 09:10:41;;;;;;;1.65;0.70;;;;;;;;;;5066089;28;20029;-51
2021/05/06 09:13:26;;;;;;;1.52;0.30;;;;;;;;;;5083284;28;20020;-50
2021/05/06 09:15:51;;;;;;;3.70;0.70;;;;;;;;;;5078886;28;20680;-52
2021/05/06 09:18:35;;;;;;;2.67;0.50;;;;;;;;;;5081292;28;20031;-56
2021/05/06 09:21:00;;;;;;;3.17;0.65;;;;;;;;;;5078903;28;20103;-56
2021/05/06 09:23:25;;;;;;;2.13;0.50;;;;;;;;;;5073074;28;20111;-55
2021/05/06 09:25:50;;;;;;;5.18;0.73;;;;;;;;;;5076785;28;20118;-53
2021/05/06 09:28:17;;;;;;;2.28;0.60;;;;;;;;;;5079338;28;20089;-56
2021/05/06 09:30:55;;;;;;;1.40;1.15;;;;;;;;;;5079213;28;20060;-52
2021/05/06 09:33:40;;;;;;;3.33;0.90;;;;;;;;;;5074112;28;20024;-54
2021/05/06 09:36:15;;;;;;;1.67;0.85;;;;;;;;;;5081138;28;20119;-51
2021/05/06 09:38:46;;;;;;;1.77;0.60;;;;;;;;;;5074614;28;20056;-54
2021/05/06 09:41:13;;;;;;;2.35;1.00;;;;;;;;;;5079486;28;20020;-54
2021/05/06 09:43:40;;;;;;;1.15;0.30;;;;;;;;;;5084817;28;20042;-56
2021/05/06 09:46:22;;;;;;;2.97;0.75;;;;;;;;;;5090454;28;20016;-54
2021/05/06 09:48:54;;;;;;;2.15;0.55;;;;;;;;;;5068643;28;20095;-54
2021/05/06 09:51:28;;;;;;;1.20;0.20;;;;;;;;;;5073713;28;20078;-55
2021/05/06 09:53:55;;;;;;;2.45;0.80;;;;;;;;;;5071462;28;20017;-56
2021/05/06 09:56:23;;;;;;;2.95;1.02;;;;;;;;;;5088069;28;20066;-56
2021/05/06 09:58:48;;;;;;;2.63;0.50;;;;;;;;;;5070612;28;20058;-53
2021/05/06 10:01:14;;;;;;;2.88;0.60;;;;;;;;;;5088868;28;20067;-51
2021/05/06 10:03:39;;;;;;;1.83;0.85;;;;;;;;;;5091522;28;20132;-54
2021/05/06 10:06:16;;;;;;;0.77;0.40;;;;;;;;;;5091093;28;20016;-54
2021/05/06 10:08:41;;;;;;;2.30;0.38;;;;;;;;;;5081835;28;20021;-53
2021/05/06 10:11:07;;;;;;;2.42;0.40;;;;;;;;;;5080400;28;20009;-52
2021/05/06 10:13:33;;;;;;;1.20;0.47;;;;;;;;;;5088275;28;20381;-54
2021/05/06 10:15:58;;;;;;;1.75;0.50;;;;;;;;;;5075787;28;20127;-54
2021/05/06 10:18:24;;;;;;;1.33;0.40;;;;;;;;;;5053470;28;20024;-53
2021/05/06 10:20:49;;;;;;;1.85;0.30;;;;;;;;;;5081052;28;20049;-52
2021/05/06 10:23:15;;;;;;;0.93;0.30;;;;;;;;;;5076948;28;20020;-54
2021/05/06 10:25:41;;;;;;;1.58;0.40;;;;;;;;;;5083280;28;20036;-53
2021/05/06 10:28:06;;;;;;;1.83;0.30;;;;;;;;;;5077272;28;20028;-52
2021/05/06 10:30:32;;;;;;;1.83;0.50;;;;;;;;;;5088710;28;20028;-53
2021/05/06 10:32:57;;;;;;;1.85;0.65;;;;;;;;;;5081680;28;20024;-53
2021/05/06 10:35:25;;;;;;;2.03;0.30;;;;;;;;;;5074525;28;20032;-53
2021/05/06 10:37:55;;;;;;;1.73;0.70;;;;;;;;;;5078196;28;20074;-54
2021/05/06 10:40:20;;;;;;;1.67;0.75;;;;;;;;;;5082133;28;20029;-54
2021/05/06 10:42:46;;;;;;;2.45;0.50;;;;;;;;;;5087075;28;20028;-54
2021/05/06 10:45:14;;;;;;;2.15;0.60;;;;;;;;;;5079600;28;20031;-55
2021/05/06 10:47:42;;;;;;;3.65;0.50;;;;;;;;;;5073455;28;20032;-56
2021/05/06 10:50:18;;;;;;;1.33;0.35;;;;;;;;;;5074514;28;20081;-56
2021/05/06 10:52:50;;;;;;;1.30;0.30;;;;;;;;;;5078082;28;20029;-54
2021/05/06 10:55:35;;;;;;;0.93;0.50;;;;;;;;;;5075106;28;20638;-52
2021/05/06 10:58:20;;;;;;;0.50;0.28;;;;;;;;;;5071985;28;21026;-56
2021/05/06 11:00:55;;;;;;;2.60;0.38;;;;;;;;;;5084289;28;20466;-53
2021/05/06 11:03:26;;;;;;;1.98;0.60;;;;;;;;;;5086238;28;20062;-54
2021/05/06 11:05:52;;;;;;;2.47;0.80;;;;;;;;;;5078793;28;20028;-54
2021/05/06 11:08:17;;;;;;;2.42;0.80;;;;;;;;;;5072263;28;20065;-54
2021/05/06 11:10:42;;;;;;;2.42;0.57;;;;;;;;;;5074273;28;20032;-55
2021/05/06 11:13:07;;;;;;;3.05;0.50;;;;;;;;;;5074059;28;20024;-55
2021/05/06 11:15:33;;;;;;;1.27;0.68;;;;;;;;;;5074353;28;20186;-52
2021/05/06 11:18:00;;;;;;;2.28;0.80;;;;;;;;;;5086720;28;20601;-54
2021/05/06 11:20:28;;;;;;;3.72;0.77;;;;;;;;;;5077805;28;20475;-55
2021/05/06 11:22:55;;;;;;;1.38;0.40;;;;;;;;;;5073617;28;20718;-56
2021/05/06 11:25:31;;;;;;;4.93;0.85;;;;;;;;;;5073428;28;20388;-56
2021/05/06 11:27:56;;;;;;;1.17;0.20;;;;;;;;;;5071573;28;20016;-54
2021/05/06 11:30:31;;;;;;;2.95;0.47;;;;;;;;;;5080912;28;20039;-54
2021/05/06 11:32:56;;;;;;;1.95;0.40;;;;;;;;;;5083193;28;20078;-54
2021/05/06 11:35:21;;;;;;;1.80;0.40;;;;;;;;;;5092042;28;20085;-57
2021/05/06 11:37:52;;;;;;;2.03;0.50;;;;;;;;;;5072128;28;20711;-53
2021/05/06 11:40:26;;;;;;;2.13;0.47;;;;;;;;;;5072541;28;20020;-55
2021/05/06 11:42:51;;;;;;;1.48;0.55;;;;;;;;;;5084331;28;20048;-53
2021/05/06 11:45:23;;;;;;;1.30;0.43;;;;;;;;;;5089226;28;20055;-55
2021/05/06 11:47:49;;;;;;;1.45;0.50;;;;;;;;;;5084670;28;20443;-54
2021/05/06 11:50:14;;;;;;;1.60;0.73;;;;;;;;;;5086392;28;20012;-56
2021/05/06 11:52:39;;;;;;;1.52;0.65;;;;;;;;;;5092729;28;20008;-53
2021/05/06 11:55:05;;;;;;;1.10;0.40;;;;;;;;;;5074547;28;20016;-55
2021/05/06 11:57:30;;;;;;;2.00;0.60;;;;;;;;;;5077479;28;20032;-55
2021/05/06 12:00:00;;;;;;;2.65;0.80;;;;;;;;;;5073852;28;20031;-57
2021/05/06 12:02:25;;;;;;;1.48;0.82;;;;;;;;;;5079509;28;20046;-55
2021/05/06 12:04:52;;;;;;;1.08;0.30;;;;;;;;;;5077036;28;20024;-53
2021/05/06 12:07:22;;;;;;;0.85;0.30;;;;;;;;;;5082634;28;20700;-56
2021/05/06 12:09:47;;;;;;;1.60;0.32;;;;;;;;;;5080261;28;20024;-55
2021/05/06 12:12:19;;;;;;;1.13;0.52;;;;;;;;;;5073379;28;20054;-56
2021/05/06 12:14:45;;;;;;;0.68;0.40;;;;;;;;;;5076983;28;20519;-56
2021/05/06 12:17:17;;;;;;;2.15;0.70;;;;;;;;;;5078841;28;20032;-55
2021/05/06 12:19:44;;;;;;;3.50;0.40;;;;;;;;;;5074797;28;20067;-54
2021/05/06 12:22:10;;;;;;;0.98;0.38;;;;;;;;;;5072829;28;20054;-52
2021/05/06 12:24:36;;;;;;;0.95;0.47;;;;;;;;;;5077089;28;20050;-54
2021/05/06 12:27:17;;;;;;;0.68;0.40;;;;;;;;;;5075197;28;20325;-52
2021/05/06 12:29:42;;;;;;;0.60;0.40;;;;;;;;;;5076706;28;20016;-53
2021/05/06 12:32:15;;;;;;;1.65;0.40;;;;;;;;;;5082889;28;20027;-53
2021/05/06 12:34:41;;;;;;;1.58;0.40;;;;;;;;;;5076671;28;20016;-52
2021/05/06 12:37:06;;;;;;;1.45;0.60;;;;;;;;;;5086334;28;20419;-54
2021/05/06 12:39:32;;;;;;;2.70;1.13;;;;;;;;;;5084622;28;20094;-52
2021/05/06 12:41:58;;;;;;;2.53;0.60;;;;;;;;;;5076554;28;20119;-51
2021/05/06 12:44:33;;;;;;;2.10;0.47;;;;;;;;;;5081947;28;20024;-54
2021/05/06 12:47:14;;;;;;;5.50;0.63;;;;;;;;;;5081424;28;20023;-55
2021/05/06 12:49:39;;;;;;;1.92;0.60;;;;;;;;;;5076961;28;20070;-51
2021/05/06 12:52:05;;;;;;;1.13;0.40;;;;;;;;;;5075598;28;20036;-52
2021/05/06 12:54:34;;;;;;;1.73;0.50;;;;;;;;;;5076778;28;20107;-52
2021/05/06 12:57:13;;;;;;;0.93;0.40;;;;;;;;;;5078522;28;20404;-55
2021/05/06 12:59:38;;;;;;;2.63;0.70;;;;;;;;;;5078582;28;20522;-55
2021/05/06 13:02:10;;;;;;;1.73;0.50;;;;;;;;;;5084603;28;20016;-53
2021/05/06 13:04:41;;;;;;;1.50;0.40;;;;;;;;;;5088977;28;20051;-53
2021/05/06 13:07:06;;;;;;;1.52;0.50;;;;;;;;;;5074128;28;20029;-54
2021/05/06 13:09:38;;;;;;;1.65;0.75;;;;;;;;;;5078505;28;20058;-52
2021/05/06 13:12:11;;;;;;;1.85;0.47;;;;;;;;;;5078493;28;20016;-54
2021/05/06 13:14:46;;;;;;;1.42;0.50;;;;;;;;;;5070723;28;20041;-54
2021/05/06 13:17:11;;;;;;;;;;;;;;;;;;5076709;28;20024;-51
2021/05/06 13:19:37;;;;;;;2.28;0.75;;;;;;;;;;5077096;28;20045;-54
2021/05/06 13:22:04;;;;;;;4.47;0.50;;;;;;;;;;5079888;28;20016;-55
2021/05/06 13:24:40;;;;;;;0.85;0.40;;;;;;;;;;5082995;28;20025;-54
2021/05/06 13:27:12;;;;;;;2.83;0.43;;;;;;;;;;5076420;28;20012;-55
2021/05/06 13:29:45;;;;;;;1.58;0.47;;;;;;;;;;5077599;28;20320;-55
2021/05/06 13:32:10;;;;;;;1.00;0.60;;;;;;;;;;5081817;28;20067;-55
2021/05/06 13:34:35;;;;;;;3.60;0.38;;;;;;;;;;5078856;28;20039;-55
2021/05/06 13:37:03;;;;;;;2.03;0.50;;;;;;;;;;5076371;28;20457;-53
2021/05/06 13:39:29;;;;;;;1.63;0.60;;;;;;;;;;5076794;28;20054;-54
2021/05/06 13:41:54;;;;;;;2.60;0.40;;;;;;;;;;5078408;28;20149;-53
2021/05/06 13:44:23;;;;;;;2.28;0.50;;;;;;;;;;5079582;28;20096;-53
2021/05/06 13:46:52;;;;;;;1.45;0.70;;;;;;;;;;5078261;28;20060;-52
2021/05/06 13:49:18;;;;;;;0.68;0.40;;;;;;;;;;5068861;28;20052;-51
2021/05/06 13:51:43;;;;;;;0.52;0.32;;;;;;;;;;5077709;28;20059;-52
2021/05/06 13:54:08;;;;;;;1.15;0.50;;;;;;;;;;5083932;28;20071;-54
2021/05/06 13:56:34;;;;;;;2.40;0.32;;;;;;;;;;5078073;28;20361;-53
2021/05/06 13:58:59;;;;;;;1.77;0.45;;;;;;;;;;5072521;28;20437;-51
2021/05/06 14:01:24;;;;;;;1.10;0.40;;;;;;;;;;5072967;28;20062;-54
2021/05/06 14:03:49;;;;;;;1.33;0.38;;;;;;;;;;5071160;28;20483;-55
2021/05/06 14:06:15;;;;;;;0.75;0.32;;;;;;;;;;5071463;28;20041;-55
2021/05/06 14:08:40;;;;;;;1.30;0.40;;;;;;;;;;5079860;28;20031;-54
2021/05/06 14:11:06;;;;;;;2.15;0.50;;;;;;;;;;5071284;28;20648;-55
2021/05/06 14:13:31;;;;;;;1.20;0.30;;;;;;;;;;5083405;28;20119;-55
2021/05/06 14:15:57;;;;;;;1.75;0.30;;;;;;;;;;5084221;28;20037;-52
2021/05/06 14:18:23;;;;;;;0.70;0.30;;;;;;;;;;5080991;28;20076;-48
2021/05/06 14:20:49;;;;;;;0.47;0.20;;;;;;;;;;5090907;28;20062;-53
2021/05/06 14:23:17;;;;;;;0.95;0.20;;;;;;;;;;5089678;28;20016;-53
2021/05/06 14:25:42;;;;;;;0.80;0.20;;;;;;;;;;5068320;28;20128;-51
2021/05/06 14:28:07;;;;;;;0.75;0.22;;;;;;;;;;5074068;28;20067;-56
2021/05/06 14:30:33;;;;;;;1.05;0.20;;;;;;;;;;5075291;28;20368;-54
2021/05/06 14:32:59;;;;;;;1.75;0.30;;;;;;;;;;5077407;28;20020;-55
2021/05/06 14:35:24;;;;;;;2.00;0.30;;;;;;;;;;5075961;28;20031;-56
2021/05/06 14:37:49;;;;;;;1.33;0.40;;;;;;;;;;5072589;28;20016;-52
2021/05/06 14:40:15;;;;;;;0.40;0.28;;;;;;;;;;5079731;28;20028;-52
2021/05/06 14:42:40;;;;;;;1.02;0.30;;;;;;;;;;5079682;28;20111;-54
2021/05/06 14:45:06;;;;;;;0.50;0.20;;;;;;;;;;5058312;28;20020;-54
2021/05/06 14:47:31;;;;;;;0.75;0.20;;;;;;;;;;5075131;28;20032;-52
2021/05/06 14:49:57;;;;;;;0.70;0.30;;;;;;;;;;5076396;28;20103;-53
2021/05/06 14:52:23;;;;;;;0.40;0.25;;;;;;;;;;5077267;28;20457;-48
2021/05/06 14:54:49;;;;;;;0.43;0.28;;;;;;;;;;5082609;28;20019;-53
2021/05/06 14:57:14;;;;;;;0.98;0.28;;;;;;;;;;5078344;28;20059;-56
2021/05/06 14:59:39;;;;;;;0.43;0.30;;;;;;;;;;5075166;28;20257;-52
2021/05/06 15:02:05;;;;;;;1.00;0.20;;;;;;;;;;5077886;28;20020;-54
2021/05/06 15:04:30;;;;;;;0.55;0.30;;;;;;;;;;5084061;28;20538;-54
2021/05/06 15:06:55;;;;;;;0.30;0.28;;;;;;;;;;5090233;28;20605;-57
2021/05/06 15:09:22;;;;;;;0.30;0.22;;;;;;;;;;5083861;28;20387;-56
2021/05/06 15:11:47;;;;;;;0.60;0.20;;;;;;;;;;5075224;28;20048;-55
2021/05/06 15:14:12;;;;;;;0.47;0.20;;;;;;;;;;5074171;28;20094;-50
2021/05/06 15:16:37;;;;;;;0.75;0.30;;;;;;;;;;5083185;28;20028;-50
2021/05/06 15:19:03;;;;;;;0.65;0.30;;;;;;;;;;5081693;28;20481;-52
2021/05/06 15:21:28;;;;;;;1.42;0.50;;;;;;;;;;5073976;28;20662;-51
2021/05/06 15:23:54;;;;;;;1.67;0.40;;;;;;;;;;5081844;28;20121;-53
2021/05/06 15:26:19;;;;;;;0.60;0.30;;;;;;;;;;5076213;28;20021;-53
2021/05/06 15:28:44;;;;;;;0.77;0.50;;;;;;;;;;5084796;28;20012;-53
2021/05/06 15:31:10;;;;;;;0.70;0.30;;;;;;;;;;5089338;28;20012;-50
2021/05/06 15:33:35;;;;;;;0.98;0.52;;;;;;;;;;5074625;28;20040;-55
2021/05/06 15:36:00;;;;;;;0.20;0.10;;;;;;;;;;5073167;28;20376;-56
2021/05/06 15:38:26;;;;;;;0.80;0.50;;;;;;;;;;5070078;28;20024;-54
2021/05/06 15:40:52;;;;;;;0.68;0.20;;;;;;;;;;5085212;28;20383;-55
2021/05/06 15:43:18;;;;;;;0.43;0.22;;;;;;;;;;5092904;28;20034;-52
2021/05/06 15:45:43;;;;;;;0.50;0.30;;;;;;;;;;5075984;28;20036;-53
2021/05/06 15:48:09;;;;;;;0.60;0.30;;;;;;;;;;5069883;28;20044;-54
2021/05/06 15:50:35;;;;;;;0.73;0.40;;;;;;;;;;5072446;28;20016;-55
2021/05/06 15:53:01;;;;;;;0.68;0.30;;;;;;;;;;5076612;28;20434;-55
2021/05/06 15:55:26;;;;;;;0.65;0.20;;;;;;;;;;5079944;28;20059;-53
2021/05/06 15:57:51;;;;;;;0.40;0.25;;;;;;;;;;5089399;28;20077;-54
2021/05/06 16:00:18;;;;;;;0.57;0.20;;;;;;;;;;5076355;28;20033;-55
2021/05/06 16:02:46;;;;;;;0.40;0.20;;;;;;;;;;5073804;28;20075;-55
2021/05/06 16:05:17;;;;;;;0.70;0.15;;;;;;;;;;5082733;28;20012;-55
2021/05/06 16:07:42;;;;;;;1.67;0.30;;;;;;;;;;5089166;28;20016;-52
2021/05/06 16:10:08;;;;;;;0.40;0.20;;;;;;;;;;5081335;28;20382;-52
2021/05/06 16:12:33;;;;;;;0.63;0.10;;;;;;;;;;5071919;28;20023;-52
2021/05/06 16:15:02;;;;;;;0.28;0.13;;;;;;;;;;5077200;28;20047;-54
2021/05/06 16:17:28;;;;;;;0.65;0.13;;;;;;;;;;5074368;28;20118;-54
2021/05/06 16:19:53;;;;;;;1.05;0.20;;;;;;;;;;5070015;28;20108;-54
2021/05/06 16:22:19;;;;;;;0.88;0.20;;;;;;;;;;5075819;28;20024;-53
2021/05/06 16:24:45;;;;;;;0.47;0.35;;;;;;;;;;5080791;28;20035;-55
2021/05/06 16:27:11;;;;;;;1.08;0.40;;;;;;;;;;5080283;28;20036;-52
2021/05/06 16:29:36;;;;;;;1.10;0.30;;;;;;;;;;5073244;28;20016;-52
2021/05/06 16:32:02;;;;;;;0.50;0.20;;;;;;;;;;5081088;28;20024;-55
2021/05/06 16:34:29;;;;;;;1.02;0.50;;;;;;;;;;5071584;28;20052;-55
2021/05/06 16:37:04;;;;;;;0.88;0.40;;;;;;;;;;5076554;28;20021;-54
2021/05/06 16:39:48;;;;;;;0.85;0.40;;;;;;;;;;5082430;28;20058;-54
2021/05/06 16:42:30;;;;;;;1.50;0.47;;;;;;;;;;5075848;28;20024;-55
2021/05/06 16:44:56;;;;;;;0.50;0.30;;;;;;;;;;5062758;28;20020;-51
2021/05/06 16:47:21;;;;;;;1.40;0.50;;;;;;;;;;5057438;28;20023;-55
2021/05/06 16:49:46;;;;;;;1.08;0.40;;;;;;;;;;5083864;28;20027;-53
2021/05/06 16:52:11;;;;;;;0.40;0.30;;;;;;;;;;5085065;28;20012;-51
2021/05/06 16:54:37;;;;;;;0.77;0.40;;;;;;;;;;5083094;28;20020;-52
2021/05/06 16:57:02;;;;;;;1.20;0.50;;;;;;;;;;5075422;28;20100;-53
2021/05/06 16:59:27;;;;;;;0.90;0.60;;;;;;;;;;5079492;28;20378;-50
2021/05/06 17:01:53;;;;;;;1.95;0.40;;;;;;;;;;5080900;28;20016;-50
2021/05/06 17:04:18;;;;;;;1.58;0.50;;;;;;;;;;5079946;28;20039;-51
2021/05/06 17:06:44;;;;;;;1.42;0.50;;;;;;;;;;5085215;28;20031;-54
2021/05/06 17:09:09;;;;;;;0.47;0.47;;;;;;;;;;5084000;28;20027;-55
2021/05/06 17:11:36;;;;;;;1.02;0.55;;;;;;;;;;5078858;28;20178;-53
2021/05/06 17:14:02;;;;;;;1.00;0.35;;;;;;;;;;5070953;28;20067;-55
2021/05/06 17:16:27;;;;;;;0.73;0.40;;;;;;;;;;5084398;28;20121;-53
2021/05/06 17:18:53;;;;;;;0.77;0.60;;;;;;;;;;5077883;28;20054;-52
2021/05/06 17:21:18;;;;;;;0.73;0.50;;;;;;;;;;5089076;28;20024;-47
2021/05/06 17:23:44;;;;;;;1.80;0.80;;;;;;;;;;5081698;28;20117;-54
2021/05/06 17:26:09;;;;;;;1.23;0.35;;;;;;;;;;5072149;28;20028;-55
2021/05/06 17:28:34;;;;;;;0.70;0.40;;;;;;;;;;5074941;28;20072;-55
2021/05/06 17:31:00;;;;;;;3.92;0.80;;;;;;;;;;5073582;28;20499;-51
2021/05/06 17:33:25;;;;;;;1.30;0.63;;;;;;;;;;5080562;28;20036;-54
2021/05/06 17:35:50;;;;;;;1.08;0.50;;;;;;;;;;5071691;28;20029;-55
2021/05/06 17:38:15;;;;;;;1.58;0.80;;;;;;;;;;5073207;28;20538;-53
2021/05/06 17:40:41;;;;;;;2.03;1.05;;;;;;;;;;5083520;28;20019;-55
2021/05/06 17:43:06;;;;;;;1.67;0.60;;;;;;;;;;5089861;28;20026;-54
2021/05/06 17:45:31;;;;;;;2.35;0.75;;;;;;;;;;5077588;28;20132;-54
2021/05/06 17:47:57;;;;;;;1.85;0.47;;;;;;;;;;5080871;28;20112;-56
2021/05/06 17:50:26;;;;;;;0.93;0.50;;;;;;;;;;5088556;28;20051;-55
2021/05/06 17:52:51;;;;;;;2.00;0.70;;;;;;;;;;5075895;28;20031;-51
2021/05/06 17:55:16;;;;;;;1.13;0.68;;;;;;;;;;5083470;28;20028;-54
2021/05/06 17:57:41;;;;;;;1.35;0.75;;;;;;;;;;5072188;28;20031;-54